Time;durP1;ratioP1;P1;durP2;ratioP2;P2;SDS_P1;SDS_P2;PMS_P1;PMS_P2;Temp;Humidity;BMP_temperature;BMP_pressure;BME280_temperature;BME280_humidity;BME280_pressure;Samples;Min_cycle;Max_cycle;Signal;HPM_P1;HPM_P2
2022/05/06 00:00:24;;;;;;;;;;;;;;;26.10;39.28;94610.41;4964692;28;7232;-63
2022/05/06 00:02:55;;;;;;;;;;;;;;;26.10;39.02;94615.91;4966537;28;7267;-63
2022/05/06 00:05:21;;;;;;;;;;;;;;;26.09;39.16;94610.91;4952340;28;9083;-62
2022/05/06 00:08:02;;;;;;;;;;;;;;;26.07;38.71;94614.16;4946057;28;9489;-63
2022/05/06 00:10:39;;;;;;;;;;;;;;;26.08;39.10;94612.91;4969693;28;7400;-63
2022/05/06 00:13:08;;;;;;;;;;;;;;;26.06;39.42;94609.91;4953937;28;8780;-63
2022/05/06 00:15:40;;;;;;;;;;;;;;;26.06;39.12;94612.66;4953654;28;7325;-63
2022/05/06 00:18:27;;;;;;;;;;;;;;;26.05;38.85;94611.16;4954971;28;9079;-63
2022/05/06 00:20:53;;;;;;;;;;;;;;;26.02;38.46;94603.16;4947452;28;9083;-63
2022/05/06 00:23:26;;;;;;;;;;;;;;;26.03;39.15;94605.38;4958877;28;9166;-63
2022/05/06 00:25:52;;;;;;;;;;;;;;;26.01;38.43;94613.41;4960011;28;9475;-63
2022/05/06 00:28:23;;;;;;;;;;;;;;;26.01;38.99;94605.16;4949749;28;7285;-63
2022/05/06 00:30:49;;;;;;;;;;;;;;;26.00;38.78;94611.94;4952066;28;9175;-63
2022/05/06 00:33:16;;;;;;;;;;;;;;;26.02;38.30;94600.41;4935178;28;9436;-63
2022/05/06 00:35:42;;;;;;;;;;;;;;;26.00;38.55;94602.91;4949416;28;7330;-62
2022/05/06 00:38:11;;;;;;;;;;;;;;;25.97;39.30;94604.69;4949521;28;6990;-63
2022/05/06 00:40:37;;;;;;;;;;;;;;;26.00;38.67;94606.44;4948136;28;7221;-63
2022/05/06 00:43:03;;;;;;;;;;;;;;;25.99;38.29;94599.41;4963576;28;7197;-63
2022/05/06 00:45:49;;;;;;;;;;;;;;;25.97;38.49;94599.16;4944915;28;9168;-63
2022/05/06 00:48:16;;;;;;;;;;;;;;;25.98;38.48;94600.69;4961585;28;7001;-63
2022/05/06 00:50:45;;;;;;;;;;;;;;;25.99;38.54;94601.44;4963995;28;7437;-63
2022/05/06 00:53:13;;;;;;;;;;;;;;;25.97;39.17;94599.16;4933109;28;9755;-63
2022/05/06 00:55:41;;;;;;;;;;;;;;;25.98;38.17;94592.41;4947043;28;9280;-62
2022/05/06 00:58:07;;;;;;;;;;;;;;;25.98;38.41;94589.66;4923635;28;7214;-63
2022/05/06 01:00:34;;;;;;;;;;;;;;;25.98;38.40;94581.38;4955475;28;7240;-62
2022/05/06 01:03:02;;;;;;;;;;;;;;;25.96;38.42;94586.66;4938573;28;9444;-62
2022/05/06 01:05:33;;;;;;;;;;;;;;;25.97;38.54;94582.63;4946614;28;7195;-62
2022/05/06 01:08:01;;;;;;;;;;;;;;;25.97;38.13;94581.88;4937548;28;8967;-62
2022/05/06 01:10:27;;;;;;;;;;;;;;;25.96;38.43;94586.66;4946110;28;7081;-62
2022/05/06 01:12:53;;;;;;;;;;;;;;;25.94;38.37;94582.91;4938297;28;8839;-62
2022/05/06 01:15:30;;;;;;;;;;;;;;;25.96;38.92;94581.13;4953016;28;7301;-62
2022/05/06 01:18:13;;;;;;;;;;;;;;;25.93;38.16;94582.16;4953088;28;7113;-62
2022/05/06 01:21:00;;;;;;;;;;;;;;;25.91;38.06;94570.13;4948509;28;6997;-62
2022/05/06 01:23:37;;;;;;;;;;;;;;;25.93;38.04;94578.63;4968419;28;9270;-63
2022/05/06 01:26:03;;;;;;;;;;;;;;;25.94;38.11;94572.63;4965394;28;9230;-63
2022/05/06 01:28:32;;;;;;;;;;;;;;;25.96;37.95;94572.88;4936985;28;9121;-62
2022/05/06 01:31:01;;;;;;;;;;;;;;;25.94;38.73;94572.63;4947655;28;9288;-62
2022/05/06 01:33:29;;;;;;;;;;;;;;;25.94;38.23;94571.88;4952139;28;7239;-62
2022/05/06 01:36:01;;;;;;;;;;;;;;;25.96;38.44;94569.38;4942122;28;9004;-62
2022/05/06 01:38:34;;;;;;;;;;;;;;;25.98;38.74;94567.59;4943023;28;9159;-62
2022/05/06 01:41:03;;;;;;;;;;;;;;;25.97;38.35;94576.34;4956878;28;7245;-62
2022/05/06 01:43:49;;;;;;;;;;;;;;;25.96;38.75;94572.88;4947864;28;7350;-62
2022/05/06 01:46:19;;;;;;;;;;;;;;;25.96;38.10;94574.88;4952371;28;7320;-62
2022/05/06 01:48:54;;;;;;;;;;;;;;;26.01;38.32;94574.09;4956499;28;7233;-63
2022/05/06 01:51:35;;;;;;;;;;;;;;;25.99;38.63;94568.34;4943186;28;9097;-63
2022/05/06 01:54:12;;;;;;;;;;;;;;;25.98;38.55;94564.84;4949030;28;9185;-63
2022/05/06 01:56:41;;;;;;;;;;;;;;;25.98;38.50;94575.88;4947792;28;7309;-64
2022/05/06 01:59:12;;;;;;;;;;;;;;;25.97;38.61;94574.34;4967466;28;6992;-64
2022/05/06 02:01:40;;;;;;;;;;;;;;;26.00;37.81;94567.09;4950015;28;7418;-63
2022/05/06 02:07:07;;;;;;;;;;;;;;;25.98;37.96;94570.34;4952171;28;7043;-63
2022/05/06 02:09:48;;;;;;;;;;;;;;;25.96;38.33;94572.88;4950274;28;8760;-63
2022/05/06 02:12:14;;;;;;;;;;;;;;;25.96;37.60;94559.09;4950060;28;7033;-63
2022/05/06 02:14:56;;;;;;;;;;;;;;;26.00;37.91;94569.84;4964250;28;7380;-63
2022/05/06 02:17:22;;;;;;;;;;;;;;;25.98;37.89;94567.59;4961398;28;9100;-63
2022/05/06 02:20:16;;;;;;;;;;;;;;;25.99;37.50;94563.56;4952808;28;9129;-63
2022/05/06 02:22:58;;;;;;;;;;;;;;;26.01;37.93;94560.31;4938379;28;9124;-63
2022/05/06 02:25:26;;;;;;;;;;;;;;;26.00;37.43;94558.81;4931371;28;7289;-63
2022/05/06 02:27:55;;;;;;;;;;;;;;;26.02;38.20;94557.06;4927293;28;7216;-63
2022/05/06 02:33:12;;;;;;;;;;;;;;;26.00;37.60;94558.81;4937380;28;7610;-63
2022/05/06 02:35:44;;;;;;;;;;;;;;;26.00;38.14;94556.81;4930920;29;9193;-63
2022/05/06 02:38:11;;;;;;;;;;;;;;;25.97;37.58;94563.34;4925345;29;7821;-63
2022/05/06 02:40:38;;;;;;;;;;;;;;;25.94;37.95;94553.34;4930810;28;9404;-63
2022/05/06 02:43:09;;;;;;;;;;;;;;;25.98;37.46;94555.81;4927129;29;9047;-63
2022/05/06 02:45:44;;;;;;;;;;;;;;;25.99;37.83;94555.31;4941366;28;9107;-63
2022/05/06 02:48:19;;;;;;;;;;;;;;;25.99;38.05;94560.81;4922795;29;8942;-63
2022/05/06 02:51:05;;;;;;;;;;;;;;;25.98;38.40;94553.81;4929025;29;7118;-63
2022/05/06 02:53:33;;;;;;;;;;;;;;;25.97;37.85;94559.81;4931712;29;7312;-63
2022/05/06 02:55:58;;;;;;;;;;;;;;;25.98;38.41;94555.81;4930689;29;7317;-64
2022/05/06 02:58:27;;;;;;;;;;;;;;;25.96;38.27;94548.06;4925314;29;7373;-64
2022/05/06 03:00:53;;;;;;;;;;;;;;;25.95;37.60;94556.81;4952412;28;9196;-64
2022/05/06 03:03:19;;;;;;;;;;;;;;;25.97;38.16;94559.81;4946820;28;10236;-63
2022/05/06 03:05:45;;;;;;;;;;;;;;;25.97;37.28;94557.81;4951720;28;7313;-64
2022/05/06 03:08:12;;;;;;;;;;;;;;;25.98;38.05;94545.56;4934794;29;8807;-63
2022/05/06 03:10:38;;;;;;;;;;;;;;;25.97;38.07;94554.31;4947880;29;9074;-64
2022/05/06 03:13:07;;;;;;;;;;;;;;;25.95;37.61;94551.31;4950380;28;9173;-64
2022/05/06 03:15:43;;;;;;;;;;;;;;;25.94;38.01;94558.84;4959158;28;7320;-64
2022/05/06 03:18:11;;;;;;;;;;;;;;;25.92;37.73;94547.59;4949913;28;7200;-63
2022/05/06 03:20:40;;;;;;;;;;;;;;;25.93;38.13;94546.31;4947793;29;7231;-63
2022/05/06 03:23:17;;;;;;;;;;;;;;;25.91;38.25;94551.59;4966379;28;9742;-64
2022/05/06 03:25:43;;;;;;;;;;;;;;;25.94;37.69;94541.56;4954488;28;9079;-63
2022/05/06 03:28:09;;;;;;;;;;;;;;;25.94;37.64;94547.06;4954215;28;7877;-63
2022/05/06 03:30:44;;;;;;;;;;;;;;;25.92;38.34;94535.81;4954309;28;9348;-64
2022/05/06 03:33:15;;;;;;;;;;;;;;;25.91;38.49;94546.09;4954070;28;7025;-64
2022/05/06 03:35:44;;;;;;;;;;;;;;;25.91;38.45;94546.09;4954628;28;9276;-63
2022/05/06 03:38:17;;;;;;;;;;;;;;;25.92;37.63;94533.06;4953156;28;7101;-63
2022/05/06 03:41:04;;;;;;;;;;;;;;;25.89;38.22;94534.81;4959867;28;7212;-63
2022/05/06 03:43:33;;;;;;;;;;;;;;;25.90;38.17;94539.06;4970424;28;7209;-63
2022/05/06 03:46:05;;;;;;;;;;;;;;;25.87;37.82;94534.59;4967177;28;7282;-63
2022/05/06 03:48:34;;;;;;;;;;;;;;;25.84;37.84;94543.84;4942285;28;7673;-63
2022/05/06 03:53:55;;;;;;;;;;;;;;;25.87;38.00;94544.84;4953329;28;7335;-63
2022/05/06 03:56:25;;;;;;;;;;;;;;;25.83;37.72;94545.13;4953532;28;7310;-63
2022/05/06 03:59:06;;;;;;;;;;;;;;;25.83;38.11;94547.13;4958951;28;9365;-64
2022/05/06 04:01:34;;;;;;;;;;;;;;;25.82;38.10;94546.38;4950777;28;8143;-64
2022/05/06 04:04:05;;;;;;;;;;;;;;;25.81;37.85;94542.13;4951967;28;7139;-63
2022/05/06 04:06:42;;;;;;;;;;;;;;;25.80;37.80;94537.88;4954052;28;7722;-63
2022/05/06 04:09:12;;;;;;;;;;;;;;;25.82;38.41;94538.09;4954225;28;9070;-64
2022/05/06 04:11:48;;;;;;;;;;;;;;;25.80;37.79;94539.88;4954447;28;9059;-64
2022/05/06 04:14:30;;;;;;;;;;;;;;;25.81;37.75;94549.66;4955286;28;7022;-63
2022/05/06 04:17:23;;;;;;;;;;;;;;;25.81;38.28;94550.41;4954234;28;7323;-63
2022/05/06 04:25:49;;;;;;;;;;;;;;;25.79;37.97;94552.91;4932371;29;7227;-63
2022/05/06 04:28:16;;;;;;;;;;;;;;;25.80;38.31;94550.88;4915475;29;8814;-63
2022/05/06 04:30:42;;;;;;;;;;;;;;;25.79;38.33;94549.41;4932731;29;9527;-62
2022/05/06 04:33:08;;;;;;;;;;;;;;;25.80;37.49;94550.88;4927884;29;7243;-62
2022/05/06 04:35:34;;;;;;;;;;;;;;;25.79;37.54;94554.91;4915364;29;7314;-64
2022/05/06 04:38:35;;;;;;;;;;;;;;;25.76;37.74;94559.44;4908378;29;7083;-63
2022/05/06 04:41:07;;;;;;;;;;;;;;;25.76;37.71;94562.19;4858886;29;9073;-64
2022/05/06 04:43:34;;;;;;;;;;;;;;;25.74;38.35;94559.19;4874685;29;7011;-63
2022/05/06 04:46:21;;;;;;;;;;;;;;;25.73;37.92;94556.97;4861387;29;8766;-63
2022/05/06 04:49:04;;;;;;;;;;;;;;;25.70;38.01;94560.72;4873488;29;9014;-64
2022/05/06 04:51:31;;;;;;;;;;;;;;;25.71;38.12;94560.19;4875305;29;7389;-64
2022/05/06 04:54:01;;;;;;;;;;;;;;;25.75;37.83;94560.69;4875547;29;6947;-64
2022/05/06 04:56:31;;;;;;;;;;;;;;;25.75;38.35;94566.19;4861005;29;9328;-64
2022/05/06 04:58:58;;;;;;;;;;;;;;;25.73;38.49;94560.44;4875580;29;7154;-64
2022/05/06 05:01:26;;;;;;;;;;;;;;;25.74;38.03;94566.69;4895679;29;9478;-64
2022/05/06 05:03:52;;;;;;;;;;;;;;;25.73;38.53;94557.69;4911046;29;8891;-64
2022/05/06 05:06:33;;;;;;;;;;;;;;;25.71;38.55;94560.19;4914080;29;9677;-64
2022/05/06 05:08:59;;;;;;;;;;;;;;;25.73;38.22;94568.69;4896579;29;9122;-64
2022/05/06 05:11:35;;;;;;;;;;;;;;;25.74;37.83;94567.47;4909849;29;9003;-64
2022/05/06 05:14:06;;;;;;;;;;;;;;;25.71;37.98;94565.72;4910232;29;7263;-63
2022/05/06 05:16:33;;;;;;;;;;;;;;;25.69;38.16;94562.72;4919993;28;7819;-63
2022/05/06 05:19:04;;;;;;;;;;;;;;;25.70;38.59;94564.22;4951700;28;7696;-63
2022/05/06 05:21:32;;;;;;;;;;;;;;;25.71;38.33;94562.22;4946923;28;9067;-64
2022/05/06 05:24:27;;;;;;;;;;;;;;;25.64;38.44;94560.75;4951522;28;9399;-62
2022/05/06 05:26:57;;;;;;;;;;;;;;;25.63;39.39;94564.00;4932190;28;8830;-64
2022/05/06 05:29:24;;;;;;;;;;;;;;;25.64;42.82;94565.50;4926067;28;7274;-63
2022/05/06 05:31:51;;;;;;;;;;;;;;;25.64;39.88;94563.50;4919194;29;9023;-63
2022/05/06 05:34:17;;;;;;;;;;;;;;;25.60;40.10;94565.75;4927572;28;8828;-63
2022/05/06 05:36:44;;;;;;;;;;;;;;;25.61;38.79;94572.00;4910451;29;10064;-63
2022/05/06 05:39:11;;;;;;;;;;;;;;;25.61;38.95;94575.53;4917867;29;8774;-63
2022/05/06 05:41:38;;;;;;;;;;;;;;;25.63;38.97;94567.50;4941287;28;7091;-63
2022/05/06 05:49:45;;;;;;;;;;;;;;;25.67;38.95;94567.22;4929669;28;7365;-63
2022/05/06 05:52:12;;;;;;;;;;;;;;;25.69;39.17;94570.22;4904377;28;6859;-63
2022/05/06 05:54:40;;;;;;;;;;;;;;;25.68;38.96;94563.97;4906008;29;7281;-63
2022/05/06 05:57:07;;;;;;;;;;;;;;;25.69;38.67;94568.22;4916355;28;7278;-62
2022/05/06 05:59:36;;;;;;;;;;;;;;;25.69;38.84;94570.97;4903701;29;9059;-63
2022/05/06 06:02:02;;;;;;;;;;;;;;;25.70;39.38;94560.72;4921421;28;9270;-63
2022/05/06 06:04:28;;;;;;;;;;;;;;;25.74;38.76;94572.97;4934543;28;9192;-62
2022/05/06 06:06:57;;;;;;;;;;;;;;;25.76;39.21;94573.22;4938893;28;7286;-62
2022/05/06 06:09:37;;;;;;;;;;;;;;;25.77;39.66;94573.97;4965334;28;8196;-62
2022/05/06 06:12:05;;;;;;;;;;;;;;;25.75;39.58;94566.19;4947105;28;9177;-62
2022/05/06 06:14:52;;;;;;;;;;;;;;;25.79;39.41;94569.44;4958984;28;9140;-62
2022/05/06 06:17:23;;;;;;;;;;;;;;;25.81;38.71;94571.69;4947194;28;7243;-62
2022/05/06 06:19:49;;;;;;;;;;;;;;;25.82;38.89;94571.19;4967613;28;9131;-62
2022/05/06 06:22:17;;;;;;;;;;;;;;;25.83;38.78;94569.19;4967255;28;9477;-62
2022/05/06 06:24:56;;;;;;;;;;;;;;;25.86;38.56;94566.13;4955299;28;8739;-62
2022/05/06 06:27:28;;;;;;;;;;;;;;;25.86;38.93;94570.94;4954456;28;6989;-62
2022/05/06 06:29:54;;;;;;;;;;;;;;;25.86;38.60;94571.66;4956241;28;7015;-62
2022/05/06 06:32:20;;;;;;;;;;;;;;;25.88;38.42;94574.66;4950596;28;7122;-62
2022/05/06 06:35:05;;;;;;;;;;;;;;;25.90;39.02;94566.63;4947825;28;8791;-62
2022/05/06 06:37:32;;;;;;;;;;;;;;;25.91;38.85;94573.63;4949272;28;7206;-62
2022/05/06 06:40:27;;;;;;;;;;;;;;;25.94;39.29;94574.63;4960730;28;9381;-62
2022/05/06 06:42:53;;;;;;;;;;;;;;;25.95;39.27;94570.59;4919983;29;7425;-63
2022/05/06 06:45:31;;;;;;;;;;;;;;;25.94;38.60;94572.63;4922911;29;8730;-64
2022/05/06 06:48:00;;;;;;;;;;;;;;;25.97;38.24;94570.84;4903349;29;7084;-63
2022/05/06 06:50:39;;;;;;;;;;;;;;;25.98;38.65;94575.88;4926793;29;10319;-63
2022/05/06 06:53:06;;;;;;;;;;;;;;;26.02;38.13;94561.81;4920243;29;7194;-63
2022/05/06 06:55:34;;;;;;;;;;;;;;;26.07;38.34;94570.06;4924984;29;8804;-63
2022/05/06 06:58:01;;;;;;;;;;;;;;;26.12;38.25;94576.84;4923748;29;8769;-63
2022/05/06 07:00:44;;;;;;;;;;;;;;;26.15;38.50;94573.78;4918087;29;7080;-62
2022/05/06 07:03:12;;;;;;;;;;;;;;;26.22;38.09;94580.03;4927830;29;7932;-63
2022/05/06 07:11:55;;;;;;;;;;;;;;;26.36;37.89;94578.94;4923617;29;9409;-63
2022/05/06 07:14:25;;;;;;;;;;;;;;;26.39;38.26;94583.41;4926948;29;9415;-63
2022/05/06 07:16:54;;;;;;;;;;;;;;;26.42;38.76;94598.97;4928986;29;7284;-63
2022/05/06 07:19:35;;;;;;;;;;;;;;;26.45;38.59;94592.41;4928593;28;7270;-63
2022/05/06 07:22:14;;;;;;;;;;;;;;;26.48;38.33;94597.66;4955194;28;9116;-62
2022/05/06 07:24:40;;;;;;;;;;;;;;;26.50;38.16;94586.88;4955731;28;7198;-63
2022/05/06 07:27:08;;;;;;;;;;;;;;;26.52;38.21;94594.63;4954327;28;7353;-63
2022/05/06 07:29:34;;;;;;;;;;;;;;;26.55;38.30;94601.88;4964447;28;7225;-63
2022/05/06 07:32:27;;;;;;;;;;;;;;;26.55;38.29;94597.13;4950454;28;9800;-63
2022/05/06 07:34:53;;;;;;;;;;;;;;;26.57;38.31;94599.34;4930014;28;8869;-63
2022/05/06 07:37:21;;;;;;;;;;;;;;;26.60;37.56;94598.34;4946233;28;7515;-63
2022/05/06 07:39:47;;;;;;;;;;;;;;;26.60;37.59;94592.81;4938667;28;9408;-63
2022/05/06 07:42:21;;;;;;;;;;;;;;;26.59;38.33;94586.56;4935420;28;7234;-63
2022/05/06 07:44:56;;;;;;;;;;;;;;;26.60;38.21;94592.81;4926544;28;7294;-62
2022/05/06 07:47:28;;;;;;;;;;;;;;;26.61;37.27;94597.81;4930868;28;7690;-63
2022/05/06 07:49:54;;;;;;;;;;;;;;;26.61;37.63;94595.06;4932977;28;7718;-62
2022/05/06 07:52:28;;;;;;;;;;;;;;;26.62;37.65;94598.56;4933191;28;7260;-62
2022/05/06 07:55:06;;;;;;;;;;;;;;;26.63;37.50;94600.06;4931638;28;7291;-62
2022/05/06 07:57:41;;;;;;;;;;;;;;;26.62;37.44;94596.53;4923426;28;7505;-62
2022/05/06 08:00:23;;;;;;;;;;;;;;;26.61;38.08;94595.06;4931377;28;7255;-62
2022/05/06 08:05:39;;;;;;;;;;;;;;;26.58;37.70;94589.81;4937917;28;8953;-63
2022/05/06 08:08:06;;;;;;;;;;;;;;;26.61;37.80;94591.53;4931909;28;7670;-62
2022/05/06 08:10:38;;;;;;;;;;;;;;;26.59;37.96;94592.06;4927427;28;9254;-62
2022/05/06 08:13:04;;;;;;;;;;;;;;;26.56;37.32;94593.09;4945422;28;7057;-62
2022/05/06 08:15:30;;;;;;;;;;;;;;;26.58;36.96;94596.06;4962456;28;9603;-63
2022/05/06 08:17:56;;;;;;;;;;;;;;;26.57;37.02;94594.59;4936653;28;7338;-62
2022/05/06 08:20:23;;;;;;;;;;;;;;;26.58;37.62;94598.06;4947141;28;7382;-63
2022/05/06 08:22:51;;;;;;;;;;;;;;;26.57;37.30;94602.13;4940526;28;7123;-63
2022/05/06 08:25:17;;;;;;;;;;;;;;;26.54;36.86;94595.59;4946852;28;7886;-63
2022/05/06 08:27:46;;;;;;;;;;;;;;;26.54;37.67;94594.84;4962430;28;7149;-63
2022/05/06 08:30:13;;;;;;;;;;;;;;;26.53;37.38;94609.91;4957558;28;7264;-62
2022/05/06 08:32:44;;;;;;;;;;;;;;;26.51;37.56;94599.38;4948871;28;9212;-63
2022/05/06 08:35:15;;;;;;;;;;;;;;;26.52;37.92;94602.88;4939848;28;7067;-64
2022/05/06 08:37:48;;;;;;;;;;;;;;;26.51;37.24;94601.41;4949949;28;9083;-63
2022/05/06 08:40:31;;;;;;;;;;;;;;;26.50;38.27;94599.91;4946990;28;7198;-62
2022/05/06 08:42:58;;;;;;;;;;;;;;;26.47;38.11;94601.66;4942602;28;7119;-62
2022/05/06 08:51:04;;;;;;;;;;;;;;;26.44;37.62;94602.72;4949200;28;8601;-63
2022/05/06 08:53:33;;;;;;;;;;;;;;;26.43;37.75;94605.97;4952149;28;8883;-63
2022/05/06 08:56:08;;;;;;;;;;;;;;;26.41;37.50;94614.00;4947629;28;9425;-62
2022/05/06 08:58:43;;;;;;;;;;;;;;;26.40;37.91;94610.50;4947487;28;7245;-63
2022/05/06 09:01:16;;;;;;;;;;;;;;;26.40;38.33;94620.78;4948708;28;9346;-63
2022/05/06 09:03:48;;;;;;;;;;;;;;;26.39;37.46;94622.78;4953119;28;7262;-63
2022/05/06 09:06:34;;;;;;;;;;;;;;;26.40;37.52;94629.81;4962985;28;9138;-63
2022/05/06 09:09:02;;;;;;;;;;;;;;;26.39;38.34;94630.31;4951860;28;9193;-63
2022/05/06 09:17:34;;;;;;;;;;;;;;;26.36;38.33;94634.81;4946152;28;9198;-63
2022/05/06 09:20:17;;;;;;;;;;;;;;;26.36;38.64;94639.63;4919732;28;8731;-62
2022/05/06 09:22:43;;;;;;;;;;;;;;;26.35;38.04;94636.09;4923654;29;9139;-63
2022/05/06 09:25:09;;;;;;;;;;;;;;;26.33;38.24;94644.13;4942161;28;9055;-63
2022/05/06 09:27:37;;;;;;;;;;;;;;;26.31;38.22;94638.38;4927710;28;9127;-63
2022/05/06 09:30:08;;;;;;;;;;;;;;;26.33;38.66;94646.13;4942333;28;7263;-63
2022/05/06 09:32:36;;;;;;;;;;;;;;;26.32;37.92;94645.38;4924250;28;8776;-63
2022/05/06 09:35:13;;;;;;;;;;;;;;;26.34;38.20;94647.66;4924943;28;7015;-63
2022/05/06 09:37:42;;;;;;;;;;;;;;;26.34;38.08;94639.38;4926729;28;9021;-63
2022/05/06 09:40:13;;;;;;;;;;;;;;;26.34;37.88;94642.13;4927815;28;6864;-62
2022/05/06 09:42:45;;;;;;;;;;;;;;;26.31;37.86;94637.63;4941807;28;9268;-62
2022/05/06 09:45:14;;;;;;;;;;;;;;;26.32;37.94;94641.91;4923149;28;9413;-63
2022/05/06 09:47:42;;;;;;;;;;;;;;;26.31;38.45;94645.91;4942519;28;9194;-62
2022/05/06 09:50:11;;;;;;;;;;;;;;;26.28;38.25;94641.38;4930815;28;9372;-62
2022/05/06 09:52:38;;;;;;;;;;;;;;;26.29;38.79;94645.66;4920582;28;9058;-62
2022/05/06 09:55:08;;;;;;;;;;;;;;;26.30;39.04;94647.16;4953897;28;8885;-62
2022/05/06 09:57:36;;;;;;;;;;;;;;;26.28;38.27;94644.16;4950159;28;7317;-62
2022/05/06 10:00:05;;;;;;;;;;;;;;;26.30;38.61;94645.16;4946336;28;6853;-62
2022/05/06 10:02:36;;;;;;;;;;;;;;;26.27;38.32;94650.94;4943960;28;7100;-62
2022/05/06 10:05:05;;;;;;;;;;;;;;;26.28;39.05;94647.66;4946561;28;8711;-62
2022/05/06 10:07:32;;;;;;;;;;;;;;;26.29;39.17;94651.19;4946763;28;9134;-62
2022/05/06 10:10:19;;;;;;;;;;;;;;;26.28;39.58;94649.66;4947305;28;7231;-62
2022/05/06 10:12:53;;;;;;;;;;;;;;;26.28;39.47;94655.19;4944913;28;7434;-62
2022/05/06 10:15:33;;;;;;;;;;;;;;;26.27;38.63;94650.94;4943520;28;7338;-64
2022/05/06 10:18:07;;;;;;;;;;;;;;;26.28;39.71;94641.38;4938051;28;9522;-63
2022/05/06 10:20:38;;;;;;;;;;;;;;;26.28;39.89;94646.91;4944765;28;9012;-63
2022/05/06 10:23:11;;;;;;;;;;;;;;;26.27;39.66;94651.69;4949716;28;9475;-63
2022/05/06 10:25:43;;;;;;;;;;;;;;;26.27;39.51;94653.69;4922324;29;9408;-63
2022/05/06 10:34:12;;;;;;;;;;;;;;;26.22;39.77;94651.72;4922392;29;7331;-63
2022/05/06 10:36:48;;;;;;;;;;;;;;;26.19;40.39;94650.72;4904007;29;7256;-63
2022/05/06 10:39:40;;;;;;;;;;;;;;;26.21;39.49;94650.22;4909308;29;9464;-63
2022/05/06 10:42:09;;;;;;;;;;;;;;;26.18;40.35;94649.22;4922362;29;8842;-63
2022/05/06 10:44:47;;;;;;;;;;;;;;;26.13;40.25;94639.72;4900737;29;7231;-63
2022/05/06 10:47:14;;;;;;;;;;;;;;;26.15;40.29;94637.22;4904695;29;7573;-63
2022/05/06 10:49:42;;;;;;;;;;;;;;;26.16;39.81;94640.72;4910002;29;9314;-64
2022/05/06 10:52:22;;;;;;;;;;;;;;;26.16;39.99;94649.72;4900435;29;7248;-63
2022/05/06 10:54:54;;;;;;;;;;;;;;;26.14;40.45;94646.00;4900774;29;8733;-62
2022/05/06 10:57:22;;;;;;;;;;;;;;;26.16;40.17;94646.22;4904994;29;7010;-62
2022/05/06 10:59:49;;;;;;;;;;;;;;;26.17;40.72;94642.97;4924057;29;9109;-63
2022/05/06 11:02:18;;;;;;;;;;;;;;;26.13;40.81;94636.22;4906185;29;7244;-62
2022/05/06 11:04:51;;;;;;;;;;;;;;;26.15;40.53;94650.22;4900621;29;9273;-62
2022/05/06 11:07:20;;;;;;;;;;;;;;;26.15;40.71;94651.00;4910995;29;8799;-62
2022/05/06 11:09:47;;;;;;;;;;;;;;;26.11;39.89;94645.00;4942450;28;7294;-62
2022/05/06 11:13:04;;;;;;;;;;;;;;;26.11;40.06;94642.25;4945087;29;9071;-62
2022/05/06 11:15:32;;;;;;;;;;;;;;;26.11;40.46;94652.50;4945822;28;7211;-62
2022/05/06 11:18:09;;;;;;;;;;;;;;;26.10;40.27;94640.72;4953690;28;7007;-62
2022/05/06 11:20:55;;;;;;;;;;;;;;;26.10;40.08;94649.00;4960413;28;9182;-62
2022/05/06 11:23:28;;;;;;;;;;;;;;;26.12;40.71;94640.97;4935462;29;7379;-62
2022/05/06 11:25:55;;;;;;;;;;;;;;;26.11;40.52;94642.25;4948077;29;7502;-63
2022/05/06 11:28:25;;;;;;;;;;;;;;;26.14;40.41;94652.22;4938055;28;6991;-62
2022/05/06 11:30:55;;;;;;;;;;;;;;;26.11;40.46;94644.25;4946858;29;8768;-62
2022/05/06 11:33:28;;;;;;;;;;;;;;;26.09;40.60;94638.50;4948191;29;7266;-63
2022/05/06 11:36:02;;;;;;;;;;;;;;;26.08;40.33;94643.25;4941927;29;7534;-63
2022/05/06 11:38:31;;;;;;;;;;;;;;;26.08;38.50;94640.50;4963449;28;8929;-63
2022/05/06 11:41:09;;;;;;;;;;;;;;;26.01;37.77;94649.25;4955316;28;7531;-63
2022/05/06 11:43:39;;;;;;;;;;;;;;;25.97;37.68;94645.25;4961612;28;9885;-63
2022/05/06 11:49:02;;;;;;;;;;;;;;;25.91;37.70;94645.28;4954376;28;9168;-62
2022/05/06 11:51:43;;;;;;;;;;;;;;;25.92;37.27;94646.06;4951027;28;9236;-63
2022/05/06 11:54:16;;;;;;;;;;;;;;;25.90;37.89;94643.78;4942197;28;9106;-64
2022/05/06 11:56:46;;;;;;;;;;;;;;;25.90;37.32;94643.78;4937975;28;6870;-64
2022/05/06 11:59:13;;;;;;;;;;;;;;;25.90;38.30;94648.56;4952013;28;9167;-64
2022/05/06 12:01:43;;;;;;;;;;;;;;;25.92;37.73;94646.06;4941712;28;7932;-63
2022/05/06 12:04:17;;;;;;;;;;;;;;;25.97;37.62;94648.00;4949977;28;7064;-64
2022/05/06 12:06:52;;;;;;;;;;;;;;;25.96;38.03;94638.25;4955499;28;9063;-63
2022/05/06 12:09:28;;;;;;;;;;;;;;;26.00;38.27;94647.00;4952458;28;9930;-63
2022/05/06 12:12:07;;;;;;;;;;;;;;;25.97;38.62;94643.25;4949640;28;8952;-63
2022/05/06 12:14:35;;;;;;;;;;;;;;;25.99;38.70;94656.56;4965908;28;9553;-63
2022/05/06 12:17:14;;;;;;;;;;;;;;;25.97;37.97;94637.75;4957923;28;7338;-64
2022/05/06 12:19:42;;;;;;;;;;;;;;;25.96;38.06;94638.25;4947119;28;9121;-64
2022/05/06 12:22:26;;;;;;;;;;;;;;;25.96;38.67;94641.78;4952288;28;9418;-65
2022/05/06 12:24:58;;;;;;;;;;;;;;;25.96;38.01;94644.53;4952889;28;9198;-63
2022/05/06 12:27:28;;;;;;;;;;;;;;;25.97;39.14;94646.00;4951528;28;7169;-63
2022/05/06 12:29:55;;;;;;;;;;;;;;;25.94;39.03;94649.81;4962898;28;7258;-62
2022/05/06 12:32:30;;;;;;;;;;;;;;;25.97;38.77;94640.50;4949687;28;7259;-64
2022/05/06 12:35:02;;;;;;;;;;;;;;;26.02;38.82;94642.50;4963957;28;6980;-64
2022/05/06 12:37:29;;;;;;;;;;;;;;;26.00;39.60;94639.50;4953603;28;7001;-63
2022/05/06 12:39:59;;;;;;;;;;;;;;;26.02;38.47;94642.50;4952598;28;7362;-64
2022/05/06 12:42:38;;;;;;;;;;;;;;;26.03;38.51;94654.28;4964917;28;8484;-63
2022/05/06 12:45:11;;;;;;;;;;;;;;;25.93;38.60;94642.03;4938203;28;7308;-64
2022/05/06 12:51:02;;;;;;;;;;;;;;;25.93;38.92;94640.03;4900448;29;7405;-63
2022/05/06 12:53:29;;;;;;;;;;;;;;;25.95;38.63;94634.75;4900700;29;9079;-64
2022/05/06 12:56:04;;;;;;;;;;;;;;;25.95;38.74;94645.03;4893225;29;8676;-64
2022/05/06 12:58:31;;;;;;;;;;;;;;;25.96;39.28;94652.03;4889497;29;7644;-63
2022/05/06 13:00:58;;;;;;;;;;;;;;;25.96;39.12;94635.50;4895483;29;9199;-64
2022/05/06 13:03:25;;;;;;;;;;;;;;;25.96;38.63;94646.53;4915526;29;7312;-64
2022/05/06 13:06:10;;;;;;;;;;;;;;;25.95;39.29;94640.25;4892075;29;7223;-62
2022/05/06 13:08:36;;;;;;;;;;;;;;;25.97;39.08;94648.78;4906340;29;8584;-64
2022/05/06 13:11:05;;;;;;;;;;;;;;;25.96;38.83;94647.28;4890930;29;9185;-64
2022/05/06 13:13:31;;;;;;;;;;;;;;;25.93;39.01;94647.53;4887427;29;7077;-63
2022/05/06 13:15:59;;;;;;;;;;;;;;;25.94;38.96;94652.56;4893997;29;8755;-63
2022/05/06 13:18:27;;;;;;;;;;;;;;;25.95;38.72;94653.28;4895416;29;7413;-65
2022/05/06 13:20:53;;;;;;;;;;;;;;;25.93;38.89;94653.81;4905882;29;9220;-62
2022/05/06 13:23:20;;;;;;;;;;;;;;;25.94;39.71;94654.56;4892768;29;9129;-63
2022/05/06 13:25:46;;;;;;;;;;;;;;;25.93;39.45;94651.03;4886371;29;8348;-62
2022/05/06 13:28:15;;;;;;;;;;;;;;;25.91;38.69;94648.03;4934688;28;7622;-63
2022/05/06 13:30:41;;;;;;;;;;;;;;;25.89;38.70;94647.81;4942106;28;9084;-63
2022/05/06 13:33:10;;;;;;;;;;;;;;;25.93;39.44;94647.53;4950664;28;7973;-63
2022/05/06 13:35:36;;;;;;;;;;;;;;;25.92;39.17;94652.31;4948279;28;8920;-63
2022/05/06 13:38:03;;;;;;;;;;;;;;;25.91;38.84;94656.31;4949811;28;8028;-62
2022/05/06 13:40:39;;;;;;;;;;;;;;;25.90;38.84;94649.28;4946686;28;9210;-64
2022/05/06 13:43:05;;;;;;;;;;;;;;;25.89;39.62;94653.31;4946027;28;7374;-63
2022/05/06 13:45:31;;;;;;;;;;;;;;;25.91;39.56;94650.81;4946174;28;6989;-63
2022/05/06 13:47:59;;;;;;;;;;;;;;;25.90;39.07;94649.28;4934562;28;7063;-63
2022/05/06 13:50:29;;;;;;;;;;;;;;;25.90;39.41;94649.28;4957119;28;6990;-62
2022/05/06 13:52:57;;;;;;;;;;;;;;;25.91;39.75;94650.81;4947153;28;9398;-62
2022/05/06 13:59:03;;;;;;;;;;;;;;;25.87;39.82;94646.81;4946331;28;9111;-63
2022/05/06 14:00:55;;;;;;;;;;;;;;;25.83;39.22;94635.31;4944774;28;9231;-63
2022/05/06 14:03:27;;;;;;;;;;;;;;;25.85;39.73;94647.31;4946215;28;7259;-62
2022/05/06 14:05:57;;;;;;;;;;;;;;;25.85;39.40;94655.59;4951065;28;8817;-63
2022/05/06 14:08:24;;;;;;;;;;;;;;;25.86;39.13;94653.59;4960062;28;9283;-64
2022/05/06 14:10:54;;;;;;;;;;;;;;;25.86;39.88;94654.31;4952435;28;7082;-64
2022/05/06 14:13:20;;;;;;;;;;;;;;;25.86;39.67;94648.09;4952530;28;8926;-64
2022/05/06 14:15:51;;;;;;;;;;;;;;;25.85;38.99;94646.56;4956389;28;6989;-64